createdAt,value
2019-05-25T00:02:01.742Z,6.95
2019-05-25T00:04:28.589Z,6.83
2019-05-25T00:06:55.221Z,7.12
2019-05-25T00:09:22.999Z,6.45
2019-05-25T00:11:49.608Z,7.08
2019-05-25T00:14:16.265Z,7.47
2019-05-25T00:16:42.952Z,6.97
2019-05-25T00:19:09.559Z,6.97
2019-05-25T00:21:36.221Z,6.97
2019-05-25T00:24:11.652Z,6.47
2019-05-25T00:26:32.109Z,6.60
2019-05-25T00:28:59.728Z,7.12
2019-05-25T00:31:26.372Z,7.47
2019-05-25T00:33:53.178Z,6.80
2019-05-25T00:36:20.933Z,7.05
2019-05-25T00:38:48.280Z,7.17
2019-05-25T00:41:15.282Z,7.40
2019-05-25T00:43:41.939Z,7.50
2019-05-25T00:46:10.614Z,7.00
2019-05-25T00:48:37.261Z,7.10
2019-05-25T00:51:03.873Z,7.28
2019-05-25T00:53:31.796Z,7.37
2019-05-25T00:55:58.471Z,7.40
2019-05-25T00:58:25.131Z,8.28
2019-05-25T01:00:51.830Z,7.85
2019-05-25T01:03:18.432Z,8.20
2019-05-25T01:05:45.069Z,8.60
2019-05-25T01:08:11.747Z,8.18
2019-05-25T01:10:38.380Z,9.25
2019-05-25T01:13:05.000Z,8.63
2019-05-25T01:15:43.506Z,8.83
2019-05-25T01:18:10.087Z,9.55
2019-05-25T01:20:48.186Z,8.65
2019-05-25T01:23:16.756Z,8.35
2019-05-25T01:25:44.610Z,8.40
2019-05-25T01:28:14.283Z,7.85
2019-05-25T01:30:40.897Z,8.63
2019-05-25T01:33:07.496Z,8.05
2019-05-25T01:35:34.156Z,8.18
2019-05-25T01:38:00.766Z,8.28
2019-05-25T01:40:27.384Z,8.25
2019-05-25T01:42:54.159Z,7.78
2019-05-25T01:45:20.828Z,7.70
2019-05-25T01:47:47.429Z,8.40
2019-05-25T01:50:14.287Z,7.90
2019-05-25T01:52:43.051Z,8.25
2019-05-25T01:55:10.061Z,7.85
2019-05-25T01:57:36.767Z,8.18
2019-05-25T02:00:05.887Z,8.63
2019-05-25T02:02:32.514Z,7.40
2019-05-25T02:04:59.233Z,7.33
2019-05-25T02:07:25.892Z,7.60
2019-05-25T02:09:54.481Z,7.55
2019-05-25T02:12:21.149Z,7.55
2019-05-25T02:14:49.389Z,7.50
2019-05-25T02:17:16.029Z,7.35
2019-05-25T02:19:42.980Z,7.53
2019-05-25T02:22:10.658Z,7.12
2019-05-25T02:24:37.281Z,7.05
2019-05-25T02:27:04.310Z,7.58
2019-05-25T02:29:31.022Z,7.50
2019-05-25T02:31:57.645Z,7.85
2019-05-25T02:34:24.319Z,8.35
2019-05-25T02:36:50.951Z,7.75
2019-05-25T02:39:18.470Z,7.60
2019-05-25T02:41:45.082Z,7.80
2019-05-25T02:44:11.853Z,7.40
2019-05-25T02:46:38.521Z,7.25
2019-05-25T02:49:05.034Z,7.12
2019-05-25T02:51:31.609Z,7.62
2019-05-25T02:53:58.254Z,7.40
2019-05-25T02:56:24.904Z,6.80
2019-05-25T02:58:51.529Z,7.80
2019-05-25T03:01:18.176Z,8.13
2019-05-25T03:03:44.820Z,7.92
2019-05-25T03:06:11.892Z,7.17
2019-05-25T03:08:39.163Z,8.45
2019-05-25T03:11:05.895Z,8.98
2019-05-25T03:13:32.511Z,8.20
2019-05-25T03:15:59.846Z,7.40
2019-05-25T03:18:26.516Z,8.83
2019-05-25T03:20:53.332Z,7.20
2019-05-25T03:23:19.986Z,7.83
2019-05-25T03:25:49.994Z,7.05
2019-05-25T03:28:16.869Z,6.60
2019-05-25T03:30:43.687Z,6.75
2019-05-25T03:33:11.498Z,6.80
2019-05-25T03:35:38.101Z,6.97
2019-05-25T03:38:05.795Z,7.30
2019-05-25T03:40:32.510Z,8.03
2019-05-25T03:43:00.969Z,8.15
2019-05-25T03:45:27.633Z,7.15
2019-05-25T03:47:54.322Z,6.90
2019-05-25T03:50:21.187Z,6.85
2019-05-25T03:52:47.782Z,7.42
2019-05-25T03:55:14.554Z,7.12
2019-05-25T03:57:42.977Z,7.33
2019-05-25T04:00:09.658Z,7.60
2019-05-25T04:02:36.326Z,7.70
2019-05-25T04:05:04.279Z,8.18
2019-05-25T04:07:30.859Z,8.63
2019-05-25T04:09:57.529Z,7.78
2019-05-25T04:12:25.310Z,8.68
2019-05-25T04:14:51.959Z,8.68
2019-05-25T04:17:20.401Z,10.08
2019-05-25T04:19:47.128Z,9.43
2019-05-25T04:22:14.766Z,8.85
2019-05-25T04:24:41.430Z,9.00
2019-05-25T04:27:08.057Z,9.13
2019-05-25T04:29:34.662Z,9.35
2019-05-25T04:32:01.379Z,8.45
2019-05-25T04:34:27.987Z,9.50
2019-05-25T04:36:54.655Z,9.05
2019-05-25T04:39:24.211Z,8.58
2019-05-25T04:41:50.872Z,9.50
2019-05-25T04:44:17.476Z,8.85
2019-05-25T04:46:44.247Z,9.15
2019-05-25T04:49:12.760Z,9.03
2019-05-25T04:51:39.521Z,9.33
2019-05-25T04:54:07.384Z,8.70
2019-05-25T04:56:39.540Z,9.38
2019-05-25T04:59:02.551Z,8.23
2019-05-25T05:01:29.230Z,9.00
2019-05-25T05:03:55.866Z,8.65
2019-05-25T05:06:23.482Z,8.83
2019-05-25T05:08:50.194Z,8.65
2019-05-25T05:11:18.951Z,8.85
2019-05-25T05:13:46.717Z,8.85
2019-05-25T05:16:13.414Z,8.70
2019-05-25T05:18:42.165Z,8.15
2019-05-25T05:21:08.825Z,9.38
2019-05-25T05:23:37.316Z,8.48
2019-05-25T05:26:03.955Z,9.03
2019-05-25T05:28:30.789Z,10.08
2019-05-25T05:30:57.480Z,8.85
2019-05-25T05:33:24.211Z,8.03
2019-05-25T05:35:51.306Z,7.40
2019-05-25T05:38:18.811Z,8.63
2019-05-25T05:40:46.011Z,7.67
2019-05-25T05:43:12.653Z,6.37
2019-05-25T05:45:41.763Z,7.83
2019-05-25T05:48:10.246Z,7.78
2019-05-25T05:50:40.427Z,7.33
2019-05-25T05:53:07.044Z,7.40
2019-05-25T05:55:33.673Z,7.10
2019-05-25T05:58:01.043Z,7.28
2019-05-25T06:00:28.973Z,7.55
2019-05-25T06:02:55.891Z,7.33
2019-05-25T06:05:22.552Z,6.47
2019-05-25T06:07:49.331Z,6.45
2019-05-25T06:10:17.170Z,6.78
2019-05-25T06:12:46.124Z,7.25
2019-05-25T06:15:14.667Z,6.50
2019-05-25T06:17:43.584Z,6.03
2019-05-25T06:20:14.175Z,6.10
2019-05-25T06:22:40.848Z,5.92
2019-05-25T06:25:08.257Z,6.03
2019-05-25T06:27:34.872Z,5.92
2019-05-25T06:30:01.555Z,6.10
2019-05-25T06:32:28.202Z,6.28
2019-05-25T06:34:54.871Z,6.85
2019-05-25T06:37:21.561Z,6.58
2019-05-25T06:39:48.338Z,6.40
2019-05-25T06:42:14.954Z,5.78
2019-05-25T06:44:41.930Z,5.65
2019-05-25T06:47:08.533Z,6.08
2019-05-25T06:49:35.104Z,6.03
2019-05-25T06:52:01.750Z,6.22
2019-05-25T06:54:28.343Z,6.30
2019-05-25T06:56:54.964Z,6.75
2019-05-25T06:59:21.573Z,6.40
2019-05-25T07:01:48.481Z,6.55
2019-05-25T07:04:15.036Z,6.65
2019-05-25T07:06:41.689Z,6.17
2019-05-25T07:09:08.267Z,6.50
2019-05-25T07:11:34.878Z,6.17
2019-05-25T07:14:03.457Z,6.70
2019-05-25T07:16:30.156Z,6.50
2019-05-25T07:18:56.811Z,6.35
2019-05-25T07:21:23.544Z,6.03
2019-05-25T07:23:50.142Z,6.17
2019-05-25T07:26:16.750Z,6.28
2019-05-25T07:28:43.409Z,5.40
2019-05-25T07:31:11.825Z,5.67
2019-05-25T07:33:38.475Z,5.85
2019-05-25T07:36:07.772Z,5.80
2019-05-25T07:38:35.018Z,5.58
2019-05-25T07:41:01.705Z,5.97
2019-05-25T07:43:31.448Z,5.62
2019-05-25T07:45:58.223Z,5.25
2019-05-25T07:48:25.016Z,5.40
2019-05-25T07:50:53.593Z,5.00
2019-05-25T07:53:24.935Z,5.65
2019-05-25T07:55:55.479Z,6.37
2019-05-25T07:58:31.370Z,5.40
2019-05-25T08:01:16.074Z,5.55
2019-05-25T08:03:50.407Z,5.58
2019-05-25T08:06:29.928Z,5.78
2019-05-25T08:09:08.329Z,5.08
2019-05-25T08:11:51.172Z,5.72
2019-05-25T08:14:25.536Z,5.90
2019-05-25T08:17:08.183Z,5.30
2019-05-25T08:19:44.902Z,5.22
2019-05-25T08:22:28.974Z,5.35
2019-05-25T08:25:18.932Z,4.97
2019-05-25T08:27:51.511Z,5.15
2019-05-25T08:30:18.303Z,5.55
2019-05-25T08:32:44.927Z,5.53
2019-05-25T08:35:12.105Z,5.25
2019-05-25T08:37:38.741Z,5.42
2019-05-25T08:40:09.798Z,5.05
2019-05-25T08:42:36.424Z,5.00
2019-05-25T08:45:07.480Z,4.62
2019-05-25T08:47:34.191Z,4.33
2019-05-25T08:50:01.373Z,4.78
2019-05-25T08:52:27.979Z,4.80
2019-05-25T08:54:56.766Z,4.40
2019-05-25T08:57:23.128Z,4.67
2019-05-25T08:59:49.913Z,3.85
2019-05-25T09:02:16.508Z,4.10
2019-05-25T09:04:43.286Z,4.28
2019-05-25T09:07:09.882Z,3.98
2019-05-25T09:09:36.921Z,3.47
2019-05-25T09:12:03.735Z,3.80
2019-05-25T09:14:30.310Z,4.22
2019-05-25T09:16:57.032Z,3.75
2019-05-25T09:19:23.685Z,4.05
2019-05-25T09:22:01.915Z,4.33
2019-05-25T09:24:19.638Z,3.58
2019-05-25T09:26:47.097Z,4.05
2019-05-25T09:29:13.670Z,4.37
2019-05-25T09:31:40.264Z,3.35
2019-05-25T09:34:06.870Z,3.80
2019-05-25T09:36:34.583Z,4.00
2019-05-25T09:39:01.167Z,3.40
2019-05-25T09:41:29.213Z,3.75
2019-05-25T09:43:55.783Z,3.62
2019-05-25T09:46:22.488Z,3.67
2019-05-25T09:48:49.103Z,3.58
2019-05-25T09:51:16.052Z,3.50
2019-05-25T09:53:43.100Z,3.70
2019-05-25T09:56:12.396Z,3.72
2019-05-25T09:58:39.031Z,3.27
2019-05-25T10:01:05.840Z,3.70
2019-05-25T10:03:32.681Z,3.42
2019-05-25T10:05:59.298Z,3.85
2019-05-25T10:08:26.356Z,3.85
2019-05-25T10:10:53.042Z,3.37
2019-05-25T10:13:20.679Z,3.47
2019-05-25T10:15:47.472Z,3.22
2019-05-25T10:18:14.938Z,3.52
2019-05-25T10:20:41.509Z,3.17
2019-05-25T10:23:08.486Z,3.87
2019-05-25T10:25:37.269Z,3.30
2019-05-25T10:28:03.863Z,3.35
2019-05-25T10:30:30.417Z,3.33
2019-05-25T10:32:57.159Z,2.75
2019-05-25T10:35:23.741Z,3.45
2019-05-25T10:37:50.421Z,3.12
2019-05-25T10:40:17.220Z,3.10
2019-05-25T10:42:45.018Z,2.80
2019-05-25T10:45:14.909Z,3.25
2019-05-25T10:47:41.707Z,3.00
2019-05-25T10:50:09.614Z,2.95
2019-05-25T10:52:41.323Z,3.47
2019-05-25T10:55:32.234Z,3.50
2019-05-25T10:58:19.301Z,4.30
2019-05-25T11:00:54.476Z,3.37
2019-05-25T11:03:33.298Z,3.08
2019-05-25T11:06:09.504Z,3.27
2019-05-25T11:08:54.755Z,3.02
2019-05-25T11:11:37.021Z,3.47
2019-05-25T11:14:19.943Z,3.60
2019-05-25T11:17:04.977Z,3.40
2019-05-25T11:19:37.137Z,3.45
2019-05-25T11:22:03.809Z,2.80
2019-05-25T11:24:31.477Z,2.92
2019-05-25T11:26:59.901Z,2.77
2019-05-25T11:29:30.467Z,2.85
2019-05-25T11:32:02.088Z,2.85
2019-05-25T11:34:27.340Z,2.90
2019-05-25T11:36:54.173Z,2.92
2019-05-25T11:39:20.764Z,3.00
2019-05-25T11:41:48.384Z,3.22
2019-05-25T11:44:15.013Z,2.90
2019-05-25T11:46:41.578Z,2.60
2019-05-25T11:49:21.654Z,2.83
2019-05-25T11:51:37.112Z,2.83
2019-05-25T11:54:03.777Z,2.95
2019-05-25T11:56:30.332Z,3.05
2019-05-25T11:58:57.047Z,2.98
2019-05-25T12:01:23.655Z,3.10
2019-05-25T12:03:53.317Z,3.47
2019-05-25T12:06:19.954Z,3.25
2019-05-25T12:08:46.570Z,3.45
2019-05-25T12:11:14.277Z,2.90
2019-05-25T12:13:40.890Z,2.58
2019-05-25T12:16:07.463Z,2.90
2019-05-25T12:18:34.031Z,2.62
2019-05-25T12:21:00.655Z,2.20
2019-05-25T12:23:27.391Z,2.20
2019-05-25T12:25:54.261Z,2.10
2019-05-25T12:28:21.216Z,2.20
2019-05-25T12:30:47.809Z,2.17
2019-05-25T12:33:14.463Z,1.80
2019-05-25T12:35:41.075Z,1.90
2019-05-25T12:38:07.665Z,2.22
2019-05-25T12:40:34.654Z,3.42
2019-05-25T12:43:01.359Z,2.98
2019-05-25T12:45:27.957Z,3.10
2019-05-25T12:47:54.646Z,2.70
2019-05-25T12:50:21.401Z,2.90
2019-05-25T12:52:47.998Z,2.65
2019-05-25T12:55:14.829Z,2.70
2019-05-25T12:57:41.484Z,3.12
2019-05-25T13:00:15.559Z,3.05
2019-05-25T13:02:37.104Z,3.00
2019-05-25T13:05:04.957Z,2.60
2019-05-25T13:07:34.284Z,2.75
2019-05-25T13:10:05.875Z,2.83
2019-05-25T13:12:32.721Z,2.85
2019-05-25T13:14:59.343Z,2.47
2019-05-25T13:17:25.937Z,2.30
2019-05-25T13:19:52.516Z,2.55
2019-05-25T13:22:19.155Z,2.30
2019-05-25T13:24:45.970Z,2.72
2019-05-25T13:27:12.581Z,2.80
2019-05-25T13:29:39.506Z,2.50
2019-05-25T13:32:06.309Z,2.25
2019-05-25T13:34:33.017Z,2.60
2019-05-25T13:37:01.844Z,4.20
2019-05-25T13:39:30.653Z,2.85
2019-05-25T13:41:57.556Z,2.52
2019-05-25T13:44:24.349Z,2.58
2019-05-25T13:46:51.005Z,2.83
2019-05-25T13:49:18.024Z,2.72
2019-05-25T13:51:44.653Z,3.17
2019-05-25T13:54:11.463Z,3.02
2019-05-25T13:56:38.076Z,3.30
2019-05-25T13:59:06.652Z,4.00
2019-05-25T14:01:33.343Z,4.05
2019-05-25T14:03:59.941Z,4.80
2019-05-25T14:06:27.681Z,4.40
2019-05-25T14:08:54.396Z,5.10
2019-05-25T14:11:20.980Z,4.97
2019-05-25T14:13:49.253Z,6.08
2019-05-25T14:16:15.894Z,5.33
2019-05-25T14:18:42.706Z,6.33
2019-05-25T14:21:09.255Z,6.62
2019-05-25T14:23:37.122Z,5.53
2019-05-25T14:26:03.977Z,5.30
2019-05-25T14:28:30.539Z,5.05
2019-05-25T14:30:57.207Z,5.92
2019-05-25T14:33:25.910Z,5.85
2019-05-25T14:35:52.508Z,6.37
2019-05-25T14:38:19.142Z,5.92
2019-05-25T14:40:46.991Z,6.67
2019-05-25T14:43:13.908Z,6.05
2019-05-25T17:15:43.612Z,3.77
2019-05-25T17:18:11.169Z,4.17
2019-05-25T17:20:37.883Z,3.85
2019-05-25T17:23:04.512Z,4.25
2019-05-25T17:25:31.138Z,4.60
2019-05-25T17:27:57.996Z,5.25
2019-05-25T17:30:37.565Z,5.70
2019-05-25T17:33:04.147Z,4.58
2019-05-25T17:35:30.771Z,3.92
2019-05-25T17:37:57.439Z,4.00
2019-05-25T17:40:24.086Z,3.83
2019-05-25T17:42:50.828Z,4.35
2019-05-25T17:45:17.466Z,3.92
2019-05-25T17:47:44.061Z,4.00
2019-05-25T17:50:10.880Z,4.20
2019-05-25T17:52:37.491Z,5.03
2019-05-25T17:55:05.738Z,5.45
2019-05-25T17:57:32.381Z,5.55
2019-05-25T17:59:59.752Z,5.58
2019-05-25T18:02:26.523Z,4.92
2019-05-25T18:04:54.189Z,7.03
2019-05-25T18:07:20.722Z,7.45
2019-05-25T18:09:47.335Z,9.45
2019-05-25T18:12:13.943Z,7.55
2019-05-25T18:14:40.564Z,7.50
2019-05-25T18:17:08.095Z,7.05
2019-05-25T18:19:34.755Z,7.08
2019-05-25T18:22:01.431Z,7.40
2019-05-25T18:24:28.027Z,6.97
2019-05-25T18:26:54.633Z,7.10
2019-05-25T18:29:23.817Z,6.60
2019-05-25T18:31:49.873Z,6.67
2019-05-25T18:34:22.123Z,6.60
2019-05-25T18:36:45.044Z,7.00
2019-05-25T18:39:14.590Z,7.20
2019-05-25T18:41:41.174Z,7.22
2019-05-25T18:44:07.830Z,7.70
2019-05-25T18:46:34.598Z,7.65
2019-05-25T18:49:01.203Z,8.55
2019-05-25T18:51:27.813Z,7.60
2019-05-25T18:53:55.360Z,7.62
2019-05-25T18:56:21.958Z,8.03
2019-05-25T18:58:48.674Z,8.30
2019-05-25T19:01:15.317Z,8.08
2019-05-25T19:03:41.932Z,8.48
2019-05-25T19:06:08.648Z,8.35
2019-05-25T19:08:35.406Z,8.33
2019-05-25T19:11:02.058Z,8.80
2019-05-25T19:13:28.649Z,8.55
2019-05-25T19:15:55.252Z,8.40
2019-05-25T19:18:21.929Z,8.58
2019-05-25T19:20:48.589Z,8.90
2019-05-25T19:23:15.312Z,8.63
2019-05-25T19:25:41.931Z,8.33
2019-05-25T19:28:08.637Z,8.65
2019-05-25T19:30:35.228Z,9.48
2019-05-25T19:33:01.831Z,9.63
2019-05-25T19:35:28.481Z,9.10
2019-05-25T19:37:55.105Z,9.38
2019-05-25T19:40:23.035Z,9.50
2019-05-25T19:42:50.309Z,9.18
2019-05-25T19:45:17.861Z,9.73
2019-05-25T19:47:44.495Z,11.00
2019-05-25T19:50:11.387Z,10.80
2019-05-25T19:52:37.986Z,10.08
2019-05-25T19:55:05.527Z,10.90
2019-05-25T19:57:33.036Z,10.20
2019-05-25T19:59:59.657Z,9.93
2019-05-25T20:02:26.272Z,10.45
2019-05-25T20:04:53.299Z,10.43
2019-05-25T20:07:19.928Z,10.23
2019-05-25T20:09:46.548Z,10.40
2019-05-25T20:12:13.258Z,10.05
2019-05-25T20:14:39.877Z,9.05
2019-05-25T20:17:06.491Z,10.93
2019-05-25T20:19:33.187Z,10.40
2019-05-25T20:21:59.840Z,9.88
2019-05-25T20:24:26.639Z,9.98
2019-05-25T20:26:53.333Z,9.60
2019-05-25T20:29:20.030Z,9.55
2019-05-25T20:31:46.717Z,9.70
2019-05-25T20:34:13.369Z,9.78
2019-05-25T20:36:39.958Z,9.25
2019-05-25T20:39:06.724Z,9.65
2019-05-25T20:41:33.388Z,10.30
2019-05-25T20:44:00.425Z,9.03
2019-05-25T20:46:27.061Z,8.68
2019-05-25T20:48:53.713Z,10.00
2019-05-25T20:51:20.354Z,10.40
2019-05-25T20:53:47.033Z,11.08
2019-05-25T20:56:13.700Z,10.58
2019-05-25T20:58:40.345Z,9.93
2019-05-25T21:01:07.035Z,10.38
2019-05-25T21:03:33.736Z,9.38
2019-05-25T21:06:00.334Z,10.28
2019-05-25T21:08:26.965Z,10.35
2019-05-25T21:10:53.656Z,10.70
2019-05-25T21:13:20.279Z,9.85
2019-05-25T21:15:46.910Z,10.05
2019-05-25T21:18:13.571Z,11.10
2019-05-25T21:20:40.219Z,10.30
2019-05-25T21:23:06.881Z,9.98
2019-05-25T21:25:33.538Z,9.55
2019-05-25T21:28:00.186Z,9.40
2019-05-25T21:30:26.852Z,8.90
2019-05-25T21:32:53.532Z,9.73
2019-05-25T21:35:20.102Z,10.05
2019-05-25T21:37:46.734Z,10.25
2019-05-25T21:40:13.599Z,9.88
2019-05-25T21:42:40.243Z,9.23
2019-05-25T21:45:07.462Z,10.03
2019-05-25T21:47:34.178Z,10.15
2019-05-25T21:50:00.793Z,10.45
2019-05-25T21:52:29.233Z,10.68
2019-05-25T21:54:56.014Z,10.43
2019-05-25T21:57:22.632Z,10.48
2019-05-25T21:59:49.249Z,9.63
2019-05-25T22:02:15.870Z,9.58
2019-05-25T22:04:42.560Z,9.78
2019-05-25T22:07:09.139Z,9.18
2019-05-25T22:09:35.890Z,9.28
2019-05-25T22:12:02.671Z,10.10
2019-05-25T22:14:29.319Z,9.78
2019-05-25T22:16:55.950Z,10.45
2019-05-25T22:19:22.575Z,11.12
2019-05-25T22:21:49.220Z,10.80
2019-05-25T22:24:15.874Z,9.23
2019-05-25T22:26:42.512Z,9.95
2019-05-25T22:29:09.105Z,10.18
2019-05-25T22:31:37.101Z,10.65
2019-05-25T22:34:03.782Z,10.45
2019-05-25T22:36:39.937Z,10.30
2019-05-25T22:38:59.114Z,9.53
2019-05-25T22:41:25.766Z,11.03
2019-05-25T22:43:52.403Z,9.58
2019-05-25T22:46:19.037Z,10.35
2019-05-25T22:48:45.682Z,10.78
2019-05-25T22:51:12.204Z,11.60
2019-05-25T22:53:38.869Z,12.10
2019-05-25T22:56:05.489Z,11.50
2019-05-25T22:58:33.248Z,11.43
2019-05-25T23:00:59.901Z,10.55
2019-05-25T23:03:26.448Z,10.05
2019-05-25T23:05:53.065Z,10.68
2019-05-25T23:08:19.768Z,11.70
2019-05-25T23:10:46.368Z,10.13
2019-05-25T23:13:13.268Z,10.93
2019-05-25T23:15:39.907Z,10.40
2019-05-25T23:18:06.597Z,11.50
2019-05-25T23:20:36.388Z,10.45
2019-05-25T23:23:01.892Z,10.00
2019-05-25T23:25:32.498Z,10.40
2019-05-25T23:27:59.134Z,10.90
2019-05-25T23:30:27.093Z,11.35
2019-05-25T23:32:53.869Z,10.23
2019-05-25T23:35:20.461Z,10.65
2019-05-25T23:37:49.015Z,10.48
2019-05-25T23:40:16.435Z,11.60
2019-05-25T23:42:43.106Z,10.70
2019-05-25T23:45:09.913Z,12.00
2019-05-25T23:47:36.615Z,13.25
2019-05-25T23:50:07.007Z,15.48
2019-05-25T23:52:33.693Z,18.20
2019-05-25T23:55:00.303Z,17.55
2019-05-25T23:57:26.934Z,17.82
2019-05-25T23:59:53.613Z,18.77
